EGEO/OBN METAR and TAF weather

Enter ICAO airport designator
Station Type Date Time Source
EGEO METAR 2019/12/13 15:50 UTC NOAA

EGEO 131550Z 10005KT 9999 SCT035 04/03 Q0974


Station Type Date Time Source
EGEO Decoded METAR 2019/12/13 15:50 UTC NOAA

Station name not available
Dec 13, 2019 - 10:50 AM EST / 2019.12.13 1550 UTC
Wind: from the E (100 degrees) at 6 MPH (5 KT):0
Visibility: greater than 7 mile(s):0
Sky conditions: partly cloudy
Temperature: 39 F (4 C)
Dew Point: 37 F (3 C)
Relative Humidity: 93%
Pressure (altimeter): 28.76 in. Hg (0974 hPa)
ob: EGEO 131550Z 10005KT 9999 SCT035 04/03 Q0974
cycle: 16

Station Type Date Time Source
EGEO TAF UTC NOAA

Error!

Example: see airport list